createdAt,value
2018-09-17T00:01:42.344Z,15.75
2018-09-17T00:04:09.585Z,15.55
2018-09-17T00:06:36.863Z,17.12
2018-09-17T00:09:05.941Z,17.07
2018-09-17T00:11:33.265Z,14.68
2018-09-17T00:14:00.525Z,15.10
2018-09-17T00:16:27.816Z,15.00
2018-09-17T00:18:55.105Z,15.75
2018-09-17T00:21:22.401Z,15.10
2018-09-17T00:23:49.661Z,15.10
2018-09-17T00:26:16.975Z,15.43
2018-09-17T00:28:44.217Z,16.05
2018-09-17T00:31:11.481Z,15.93
2018-09-17T00:33:38.750Z,16.70
2018-09-17T00:36:06.018Z,16.32
2018-09-17T00:38:33.305Z,15.72
2018-09-17T00:41:00.565Z,15.03
2018-09-17T00:43:27.837Z,17.10
2018-09-17T00:45:55.102Z,15.40
2018-09-17T00:48:22.369Z,15.40
2018-09-17T00:50:49.657Z,15.43
2018-09-17T00:53:16.903Z,15.32
2018-09-17T00:55:44.161Z,15.45
2018-09-17T00:58:11.406Z,14.98
2018-09-17T01:00:38.665Z,15.78
2018-09-17T01:03:06.128Z,16.60
2018-09-17T01:05:33.382Z,16.87
2018-09-17T01:08:00.665Z,16.25
2018-09-17T01:10:27.937Z,15.90
2018-09-17T01:12:55.206Z,16.25
2018-09-17T01:15:22.509Z,16.67
2018-09-17T01:17:49.728Z,15.88
2018-09-17T01:20:17.301Z,16.93
2018-09-17T01:22:44.552Z,16.97
2018-09-17T01:25:11.832Z,16.30
2018-09-17T01:27:39.073Z,15.60
2018-09-17T01:30:06.337Z,16.07
2018-09-17T01:32:33.654Z,15.10
2018-09-17T01:35:01.829Z,15.70
2018-09-17T01:37:29.104Z,14.80
2018-09-17T01:39:56.481Z,15.28
2018-09-17T01:42:23.791Z,15.38
2018-09-17T01:44:51.061Z,15.83
2018-09-17T01:47:18.334Z,17.37
2018-09-17T01:49:45.635Z,15.88
2018-09-17T01:52:12.929Z,15.38
2018-09-17T01:54:40.189Z,16.57
2018-09-17T01:57:07.441Z,14.90
2018-09-17T01:59:34.712Z,17.12
2018-09-17T02:02:01.954Z,15.60
2018-09-17T02:04:29.234Z,15.80
2018-09-17T02:06:56.505Z,15.80
2018-09-17T02:09:23.766Z,16.37
2018-09-17T02:11:51.050Z,16.80
2018-09-17T02:14:18.329Z,15.75
2018-09-17T02:16:45.576Z,16.67
2018-09-17T02:19:12.878Z,16.15
2018-09-17T02:21:40.160Z,15.98
2018-09-17T02:24:07.425Z,16.93
2018-09-17T02:26:34.737Z,15.58
2018-09-17T02:29:02.016Z,15.72
2018-09-17T02:31:29.330Z,16.73
2018-09-17T02:33:56.564Z,15.48
2018-09-17T02:36:23.816Z,17.05
2018-09-17T02:38:51.098Z,16.95
2018-09-17T02:41:18.385Z,15.40
2018-09-17T02:43:45.618Z,16.05
2018-09-17T02:46:12.897Z,17.25
2018-09-17T02:48:40.169Z,15.85
2018-09-17T02:51:07.423Z,17.57
2018-09-17T02:53:34.692Z,16.02
2018-09-17T02:56:01.929Z,16.52
2018-09-17T02:58:29.542Z,16.17
2018-09-17T03:00:56.813Z,15.60
2018-09-17T03:03:24.117Z,15.60
2018-09-17T03:05:52.400Z,15.70
2018-09-17T03:08:19.643Z,16.07
2018-09-17T03:10:46.929Z,16.23
2018-09-17T03:13:14.164Z,15.85
2018-09-17T03:15:46.662Z,15.98
2018-09-17T03:18:13.890Z,15.93
2018-09-17T03:20:41.162Z,15.55
2018-09-17T03:23:08.438Z,15.28
2018-09-17T03:25:35.721Z,16.93
2018-09-17T03:28:03.003Z,16.37
2018-09-17T03:30:30.226Z,16.75
2018-09-17T03:32:57.801Z,15.70
2018-09-17T03:35:25.026Z,16.60
2018-09-17T03:37:52.277Z,16.55
2018-09-17T03:40:19.525Z,16.10
2018-09-17T03:42:46.847Z,15.18
2018-09-17T03:45:14.113Z,14.45
2018-09-17T03:47:41.387Z,15.85
2018-09-17T03:50:08.716Z,14.60
2018-09-17T03:52:35.949Z,15.18
2018-09-17T03:55:03.224Z,15.75
2018-09-17T03:57:30.492Z,15.83
2018-09-17T03:59:58.357Z,15.00
2018-09-17T04:02:25.601Z,17.02
2018-09-17T04:04:52.862Z,15.50
2018-09-17T04:07:20.118Z,15.38
2018-09-17T04:09:47.396Z,15.60
2018-09-17T04:12:15.445Z,15.55
2018-09-17T04:14:42.721Z,16.73
2018-09-17T04:17:10.034Z,15.05
2018-09-17T04:19:37.345Z,16.02
2018-09-17T04:22:04.598Z,14.65
2018-09-17T04:24:31.901Z,16.20
2018-09-17T04:26:59.193Z,15.63
2018-09-17T04:29:26.499Z,15.23
2018-09-17T04:31:53.821Z,15.98
2018-09-17T04:34:21.056Z,15.88
2018-09-17T04:36:48.351Z,15.72
2018-09-17T04:39:17.551Z,14.83
2018-09-17T04:41:44.845Z,16.55
2018-09-17T04:44:12.086Z,15.68
2018-09-17T04:46:39.358Z,16.05
2018-09-17T04:49:06.645Z,16.37
2018-09-17T04:51:33.881Z,16.07
2018-09-17T04:54:01.133Z,15.10
2018-09-17T04:56:28.397Z,15.58
2018-09-17T04:58:55.688Z,15.83
2018-09-17T05:01:22.967Z,17.15
2018-09-17T05:03:50.220Z,16.90
2018-09-17T05:06:17.489Z,15.32
2018-09-17T05:08:44.866Z,15.13
2018-09-17T05:11:12.186Z,15.25
2018-09-17T05:13:39.468Z,15.35
2018-09-17T05:16:06.745Z,16.32
2018-09-17T05:18:34.010Z,15.63
2018-09-17T05:21:01.282Z,15.93
2018-09-17T05:23:28.527Z,16.17
2018-09-17T05:25:55.872Z,15.80
2018-09-17T05:28:23.225Z,15.90
2018-09-17T05:30:50.541Z,15.48
2018-09-17T05:33:17.817Z,14.78
2018-09-17T05:35:45.109Z,16.80
2018-09-17T05:38:12.368Z,16.35
2018-09-17T05:40:39.725Z,15.32
2018-09-17T05:43:07.005Z,16.35
2018-09-17T05:45:34.233Z,19.37
2018-09-17T05:48:01.501Z,17.25
2018-09-17T05:50:28.745Z,15.98
2018-09-17T05:52:55.980Z,16.52
2018-09-17T05:55:23.241Z,16.10
2018-09-17T05:57:50.492Z,15.23
2018-09-17T06:00:17.793Z,16.77
2018-09-17T06:02:45.073Z,17.77
2018-09-17T06:05:12.331Z,16.07
2018-09-17T06:07:39.646Z,15.55
2018-09-17T06:10:12.278Z,16.65
2018-09-17T06:12:39.563Z,16.12
2018-09-17T06:15:06.857Z,15.55
2018-09-17T06:17:34.180Z,16.73
2018-09-17T06:20:01.413Z,15.45
2018-09-17T06:22:28.697Z,16.00
2018-09-17T06:24:55.937Z,15.55
2018-09-17T06:27:23.224Z,17.52
2018-09-17T06:29:50.442Z,17.87
2018-09-17T06:32:17.821Z,17.30
2018-09-17T06:34:45.226Z,16.00
2018-09-17T06:37:12.489Z,15.83
2018-09-17T06:39:39.753Z,15.83
2018-09-17T06:42:07.090Z,16.57
2018-09-17T06:44:34.386Z,16.30
2018-09-17T06:47:01.698Z,16.10
2018-09-17T06:49:28.974Z,16.32
2018-09-17T06:51:56.237Z,17.17
2018-09-17T06:54:23.499Z,15.63
2018-09-17T06:56:50.773Z,15.95
2018-09-17T06:59:18.057Z,16.15
2018-09-17T07:01:45.293Z,16.15
2018-09-17T07:04:12.581Z,17.20
2018-09-17T07:06:39.854Z,16.70
2018-09-17T07:09:08.064Z,16.57
2018-09-17T07:11:35.305Z,16.60
2018-09-17T07:14:02.635Z,16.48
2018-09-17T07:16:29.865Z,16.20
2018-09-17T07:18:57.118Z,16.00
2018-09-17T07:21:24.425Z,16.02
2018-09-17T07:23:51.673Z,15.93
2018-09-17T07:26:18.954Z,16.27
2018-09-17T07:28:46.634Z,16.32
2018-09-17T07:34:07.881Z,16.05
2018-09-17T07:36:35.216Z,16.80
2018-09-17T07:39:02.621Z,17.62
2018-09-17T07:41:29.874Z,16.73
2018-09-17T07:43:57.119Z,16.73
2018-09-17T07:46:24.432Z,17.50
2018-09-17T07:48:51.814Z,17.40
2018-09-17T07:51:19.127Z,18.15
2018-09-17T07:53:46.365Z,17.60
2018-09-17T07:56:14.346Z,18.23
2018-09-17T07:58:41.597Z,18.07
2018-09-17T08:01:08.916Z,18.12
2018-09-17T08:03:36.189Z,23.77
2018-09-17T08:06:03.490Z,18.67
2018-09-17T08:08:31.259Z,20.15
2018-09-17T08:10:58.540Z,17.92
2018-09-17T08:13:25.861Z,19.32
2018-09-17T08:15:53.090Z,18.12
2018-09-17T08:18:20.340Z,18.00
2018-09-17T08:20:47.618Z,18.73
2018-09-17T08:23:14.887Z,18.80
2018-09-17T08:25:42.194Z,18.45
2018-09-17T08:28:09.456Z,18.35
2018-09-17T08:30:36.733Z,18.62
2018-09-17T08:33:04.027Z,18.42
2018-09-17T08:35:31.410Z,18.00
2018-09-17T08:37:58.649Z,17.80
2018-09-17T08:40:26.002Z,18.52
2018-09-17T08:42:54.021Z,18.60
2018-09-17T08:45:21.427Z,18.35
2018-09-17T08:47:48.666Z,20.32
2018-09-17T08:50:16.165Z,19.02
2018-09-17T08:52:43.416Z,17.87
2018-09-17T08:55:15.005Z,19.27
2018-09-17T08:57:47.562Z,18.73
2018-09-17T09:00:18.181Z,20.90
2018-09-17T09:02:55.773Z,18.82
2018-09-17T09:05:28.684Z,20.02
2018-09-17T09:07:56.309Z,17.40
2018-09-17T09:11:30.755Z,18.20
2018-09-17T09:14:02.334Z,17.82
2018-09-17T09:16:29.605Z,18.45
2018-09-17T09:18:56.901Z,18.27
2018-09-17T09:21:24.167Z,19.25
2018-09-17T09:23:51.434Z,18.52
2018-09-17T09:26:18.727Z,18.37
2018-09-17T09:28:46.201Z,17.32
2018-09-17T09:31:13.466Z,18.10
2018-09-17T09:33:40.786Z,18.20
2018-09-17T09:36:08.118Z,18.70
2018-09-17T09:38:35.394Z,17.30
2018-09-17T09:41:02.633Z,17.67
2018-09-17T09:43:29.892Z,18.62
2018-09-17T09:45:57.166Z,18.50
2018-09-17T09:48:24.441Z,21.62
2018-09-17T09:50:51.781Z,20.68
2018-09-17T09:53:19.020Z,18.12
2018-09-17T09:55:46.410Z,19.07
2018-09-17T09:58:13.704Z,17.40
2018-09-17T10:00:46.309Z,18.17
2018-09-17T10:03:16.993Z,18.62
2018-09-17T10:05:44.678Z,17.15
2018-09-17T10:08:11.985Z,17.60
2018-09-17T10:10:44.581Z,18.73
2018-09-17T10:13:17.301Z,19.57
2018-09-17T10:15:55.118Z,22.95
2018-09-17T10:18:27.737Z,22.37
2018-09-17T10:20:55.042Z,21.33
2018-09-17T10:23:22.285Z,22.00
2018-09-17T10:25:49.572Z,21.42
2018-09-17T10:28:16.882Z,19.85
2018-09-17T10:30:44.221Z,20.75
2018-09-17T10:33:11.631Z,19.42
2018-09-17T10:35:38.912Z,19.65
2018-09-17T10:38:06.210Z,18.55
2018-09-17T10:40:33.489Z,20.05
2018-09-17T10:43:00.733Z,19.45
2018-09-17T10:45:28.076Z,20.20
2018-09-17T10:47:55.398Z,20.50
2018-09-17T10:50:22.681Z,20.77
2018-09-17T10:52:49.971Z,17.10
2018-09-17T10:55:17.267Z,18.60
2018-09-17T10:57:44.493Z,19.35
2018-09-17T11:00:11.831Z,17.80
2018-09-17T11:02:39.152Z,18.25
2018-09-17T11:05:06.472Z,20.08
2018-09-17T11:07:33.773Z,19.35
2018-09-17T11:10:01.111Z,17.52
2018-09-17T11:12:28.390Z,19.95
2018-09-17T11:14:55.697Z,19.12
2018-09-17T11:17:23.076Z,18.07
2018-09-17T11:19:50.266Z,17.92
2018-09-17T11:22:17.545Z,19.17
2018-09-17T11:24:44.853Z,19.00
2018-09-17T11:27:12.152Z,18.40
2018-09-17T11:29:39.410Z,18.48
2018-09-17T11:32:06.694Z,20.00
2018-09-17T11:34:33.997Z,17.55
2018-09-17T11:37:01.288Z,17.32
2018-09-17T11:39:28.594Z,18.32
2018-09-17T11:41:55.982Z,17.45
2018-09-17T11:44:23.257Z,16.52
2018-09-17T11:46:50.567Z,16.52
2018-09-17T11:49:17.896Z,16.30
2018-09-17T11:51:45.150Z,16.75
2018-09-17T11:54:12.423Z,15.63
2018-09-17T11:56:39.694Z,19.60
2018-09-17T11:59:07.105Z,15.98
2018-09-17T12:01:39.801Z,16.93
2018-09-17T12:04:12.370Z,17.60
2018-09-17T12:07:46.791Z,19.50
2018-09-17T12:10:14.099Z,16.85
2018-09-17T12:12:41.395Z,17.62
2018-09-17T12:15:09.266Z,18.50
2018-09-17T12:17:36.847Z,17.32
2018-09-17T12:20:04.224Z,19.60
2018-09-17T12:22:31.486Z,18.70
2018-09-17T12:24:58.733Z,19.00
2018-09-17T12:27:26.053Z,18.42
2018-09-17T12:29:53.309Z,16.93
2018-09-17T12:32:20.622Z,16.10
2018-09-17T12:34:47.893Z,15.70
2018-09-17T12:37:15.592Z,18.50
2018-09-17T12:39:42.976Z,17.30
2018-09-17T12:42:10.257Z,17.55
2018-09-17T12:44:37.558Z,16.00
2018-09-17T12:47:04.808Z,14.58
2018-09-17T12:49:32.121Z,16.60
2018-09-17T12:51:59.426Z,15.72
2018-09-17T12:54:26.744Z,17.35
2018-09-17T12:56:54.044Z,16.75
2018-09-17T12:59:21.337Z,17.23
2018-09-17T13:01:48.648Z,16.37
2018-09-17T13:04:15.887Z,17.05
2018-09-17T13:06:43.181Z,18.42
2018-09-17T13:09:11.515Z,18.30
2018-09-17T13:11:38.942Z,15.83
2018-09-17T13:14:06.372Z,19.07
2018-09-17T13:16:33.693Z,18.48
2018-09-17T13:19:00.982Z,18.32
2018-09-17T13:21:28.262Z,17.50
2018-09-17T13:23:55.550Z,19.00
2018-09-17T13:26:22.874Z,18.65
2018-09-17T13:28:50.153Z,18.10
2018-09-17T13:31:17.431Z,17.15
2018-09-17T13:33:44.679Z,18.20
2018-09-17T13:36:12.018Z,17.50
2018-09-17T13:38:39.313Z,18.35
2018-09-17T13:41:06.597Z,18.55
2018-09-17T13:43:33.852Z,16.75
2018-09-17T13:46:01.156Z,17.35
2018-09-17T13:48:28.442Z,16.20
2018-09-17T13:50:55.765Z,19.27
2018-09-17T13:53:23.099Z,17.77
2018-09-17T13:55:50.361Z,17.82
2018-09-17T13:58:17.686Z,19.25
2018-09-17T14:00:44.980Z,17.37
2018-09-17T14:03:12.325Z,17.70
2018-09-17T14:05:39.562Z,19.10
2018-09-17T14:08:07.110Z,18.12
2018-09-17T14:10:34.469Z,17.95
2018-09-17T14:13:01.712Z,17.12
2018-09-17T14:15:29.065Z,17.12
2018-09-17T14:17:56.310Z,18.48
2018-09-17T14:20:23.654Z,18.50
2018-09-17T14:22:50.985Z,18.27
2018-09-17T14:25:18.190Z,17.73
2018-09-17T14:27:45.559Z,18.67
2018-09-17T14:30:12.816Z,17.45
2018-09-17T14:32:45.812Z,18.23
2018-09-17T14:35:13.065Z,17.77
2018-09-17T14:37:40.312Z,17.62
2018-09-17T14:40:07.656Z,14.85
2018-09-17T14:42:34.970Z,16.50
2018-09-17T14:45:02.380Z,15.03
2018-09-17T14:47:29.677Z,15.00
2018-09-17T14:49:57.042Z,16.23
2018-09-17T14:52:24.416Z,15.25
2018-09-17T14:54:51.646Z,15.45
2018-09-17T14:57:18.933Z,16.30
2018-09-17T14:59:46.267Z,16.35
2018-09-17T15:02:13.608Z,17.00
2018-09-17T15:04:40.934Z,15.15
2018-09-17T15:07:08.257Z,16.05
2018-09-17T15:09:35.561Z,16.97
2018-09-17T15:12:02.939Z,17.07
2018-09-17T15:14:30.408Z,17.20
2018-09-17T15:16:57.684Z,15.58
2018-09-17T15:19:25.048Z,15.63
2018-09-17T15:21:53.014Z,15.75
2018-09-17T15:24:20.349Z,15.30
2018-09-17T15:26:47.679Z,14.90
2018-09-17T15:29:15.072Z,15.00
2018-09-17T15:31:42.402Z,15.93
2018-09-17T15:34:09.864Z,14.80
2018-09-17T15:36:37.136Z,16.32
2018-09-17T15:39:06.947Z,16.12
2018-09-17T15:41:34.372Z,17.07
2018-09-17T15:44:01.711Z,16.75
2018-09-17T15:46:28.976Z,18.48
2018-09-17T15:48:56.314Z,16.75
2018-09-17T15:51:23.758Z,17.62
2018-09-17T15:53:51.163Z,16.77
2018-09-17T15:56:18.596Z,16.20
2018-09-17T15:58:45.886Z,17.62
2018-09-17T16:01:13.253Z,17.92
2018-09-17T16:03:40.551Z,17.52
2018-09-17T16:06:07.869Z,16.77
2018-09-17T16:08:35.250Z,16.57
2018-09-17T16:11:02.638Z,17.55
2018-09-17T16:13:29.952Z,16.55
2018-09-17T16:15:57.273Z,15.35
2018-09-17T16:18:24.581Z,15.83
2018-09-17T16:20:51.899Z,15.45
2018-09-17T16:23:19.332Z,14.83
2018-09-17T16:25:46.846Z,15.15
2018-09-17T16:28:14.250Z,14.90
2018-09-17T16:30:41.694Z,16.90
2018-09-17T16:33:09.018Z,16.67
2018-09-17T16:35:36.677Z,16.32
2018-09-17T16:38:04.003Z,16.20
2018-09-17T16:40:31.340Z,17.32
2018-09-17T16:42:58.673Z,16.07
2018-09-17T16:45:26.039Z,16.80
2018-09-17T16:47:53.352Z,16.30
2018-09-17T16:50:21.368Z,16.75
2018-09-17T16:52:48.695Z,15.28
2018-09-17T16:55:15.990Z,16.02
2018-09-17T16:57:43.324Z,16.17
2018-09-17T17:00:10.601Z,18.30
2018-09-17T17:02:37.971Z,22.62
2018-09-17T17:05:05.316Z,18.40
2018-09-17T17:07:32.647Z,19.10
2018-09-17T17:09:59.996Z,17.25
2018-09-17T17:12:27.360Z,15.78
2018-09-17T17:14:54.706Z,17.48
2018-09-17T17:17:22.080Z,16.45
2018-09-17T17:19:49.477Z,15.85
2018-09-17T17:22:16.835Z,15.63
2018-09-17T17:24:44.183Z,16.07
2018-09-17T17:27:11.506Z,17.20
2018-09-17T17:29:38.842Z,16.73
2018-09-17T17:32:06.198Z,17.77
2018-09-17T17:34:33.594Z,17.12
2018-09-17T17:37:00.998Z,17.70
2018-09-17T17:39:28.458Z,17.02
2018-09-17T17:41:55.830Z,17.15
2018-09-17T17:44:23.206Z,15.15
2018-09-17T17:46:50.592Z,16.00
2018-09-17T17:49:17.914Z,15.43
2018-09-17T17:51:46.585Z,15.40
2018-09-17T17:54:14.056Z,16.80
2018-09-17T17:56:41.485Z,16.35
2018-09-17T17:59:08.988Z,14.90
2018-09-17T18:01:36.354Z,15.93
2018-09-17T18:04:03.787Z,15.30
2018-09-17T18:06:31.098Z,15.70
2018-09-17T18:08:58.465Z,15.83
2018-09-17T18:11:25.917Z,15.78
2018-09-17T18:13:53.369Z,15.98
2018-09-17T18:16:25.031Z,15.90
2018-09-17T18:18:52.445Z,16.95
2018-09-17T18:21:19.944Z,15.85
2018-09-17T18:23:47.291Z,16.40
2018-09-17T18:26:14.695Z,15.25
2018-09-17T18:28:42.133Z,15.38
2018-09-17T18:31:09.518Z,14.98
2018-09-17T18:33:36.950Z,16.20
2018-09-17T18:36:04.317Z,15.28
2018-09-17T18:38:31.717Z,17.02
2018-09-17T18:40:59.175Z,14.80
2018-09-17T18:43:26.584Z,14.95
2018-09-17T18:45:53.957Z,15.75
2018-09-17T18:48:21.428Z,14.80
2018-09-17T18:50:48.757Z,15.20
2018-09-17T18:53:16.187Z,15.65
2018-09-17T18:55:43.513Z,14.53
2018-09-17T18:58:13.586Z,15.45
2018-09-17T19:00:41.090Z,15.72
2018-09-17T19:03:08.577Z,15.88
2018-09-17T19:05:36.163Z,14.80
2018-09-17T19:08:03.812Z,15.60
2018-09-17T19:10:31.261Z,15.72
2018-09-17T19:12:58.677Z,16.50
2018-09-17T19:15:31.487Z,15.53
2018-09-17T19:18:04.284Z,15.25
2018-09-17T19:20:31.836Z,15.88
2018-09-17T19:23:04.556Z,15.15
2018-09-17T19:25:31.910Z,15.25
2018-09-17T19:28:04.814Z,15.50
2018-09-17T19:30:32.629Z,15.32
2018-09-17T19:33:00.229Z,15.65
2018-09-17T19:35:27.754Z,15.65
2018-09-17T19:38:00.634Z,16.17
2018-09-17T19:40:28.029Z,16.17
2018-09-17T19:42:55.435Z,15.25
2018-09-17T19:45:28.205Z,15.72
2018-09-17T19:47:58.165Z,15.15
2018-09-17T19:50:31.393Z,16.35
2018-09-17T19:52:58.753Z,14.90
2018-09-17T19:55:26.175Z,16.05
2018-09-17T19:57:58.949Z,14.75
2018-09-17T20:00:26.441Z,14.85
2018-09-17T20:02:53.831Z,14.87
2018-09-17T20:05:26.595Z,15.15
2018-09-17T20:07:54.226Z,14.90
2018-09-17T20:10:21.751Z,15.30
2018-09-17T20:12:49.067Z,17.07
2018-09-17T20:15:16.494Z,15.30
2018-09-17T20:17:43.944Z,15.43
2018-09-17T20:20:11.287Z,16.00
2018-09-17T20:22:38.770Z,16.10
2018-09-17T20:25:06.199Z,16.05
2018-09-17T20:27:33.586Z,15.10
2018-09-17T20:30:01.615Z,15.25
2018-09-17T20:32:29.027Z,15.20
2018-09-17T20:34:56.377Z,16.10
2018-09-17T20:37:23.727Z,16.30
2018-09-17T20:39:51.108Z,14.50
2018-09-17T20:42:18.582Z,14.30
2018-09-17T20:44:45.920Z,14.70
2018-09-17T20:47:13.247Z,14.95
2018-09-17T20:49:40.722Z,15.25
2018-09-17T20:52:08.118Z,15.68
2018-09-17T20:54:35.509Z,15.98
2018-09-17T20:57:02.882Z,14.45
2018-09-17T20:59:30.331Z,15.23
2018-09-17T21:01:57.665Z,15.55
2018-09-17T21:04:24.975Z,16.15
2018-09-17T21:06:52.364Z,15.40
2018-09-17T21:09:19.697Z,15.85
2018-09-17T21:11:47.035Z,16.32
2018-09-17T21:14:14.326Z,15.93
2018-09-17T21:16:41.672Z,16.70
2018-09-17T21:19:09.060Z,14.78
2018-09-17T21:21:36.310Z,15.55
2018-09-17T21:24:03.717Z,15.10
2018-09-17T21:26:31.085Z,15.00
2018-09-17T21:28:58.525Z,15.65
2018-09-17T21:31:25.862Z,15.88
2018-09-17T21:33:53.262Z,15.65
2018-09-17T21:36:20.523Z,15.50
2018-09-17T21:38:47.839Z,16.45
2018-09-17T21:41:15.394Z,15.85
2018-09-17T21:43:42.785Z,15.70
2018-09-17T21:46:10.643Z,15.58
2018-09-17T21:48:37.929Z,15.80
2018-09-17T21:51:05.443Z,16.70
2018-09-17T21:53:32.769Z,16.05
2018-09-17T21:56:00.133Z,16.17
2018-09-17T21:58:27.575Z,15.80
2018-09-17T22:01:00.693Z,16.12
2018-09-17T22:03:28.730Z,15.48
2018-09-17T22:05:56.366Z,16.05
2018-09-17T22:08:23.714Z,15.05
2018-09-17T22:10:51.121Z,15.28
2018-09-17T22:13:18.517Z,15.50
2018-09-17T22:15:45.823Z,15.05
2018-09-17T22:18:13.191Z,15.53
2018-09-17T22:20:40.621Z,14.80
2018-09-17T22:23:07.960Z,15.03
2018-09-17T22:25:35.263Z,16.37
2018-09-17T22:28:02.875Z,15.95
2018-09-17T22:30:30.320Z,15.48
2018-09-17T22:32:58.271Z,15.55
2018-09-17T22:35:25.535Z,15.43
2018-09-17T22:37:52.820Z,16.07
2018-09-17T22:40:20.085Z,14.90
2018-09-17T22:42:47.312Z,15.32
2018-09-17T22:45:14.607Z,14.60
2018-09-17T22:47:41.905Z,14.85
2018-09-17T22:50:09.256Z,15.53
2018-09-17T22:52:36.741Z,16.57
2018-09-17T22:55:04.273Z,15.18
2018-09-17T22:57:31.648Z,15.50
2018-09-17T22:59:59.105Z,16.42
2018-09-17T23:02:26.433Z,15.28
2018-09-17T23:04:54.653Z,15.58
2018-09-17T23:07:21.927Z,15.68
2018-09-17T23:09:49.161Z,15.30
2018-09-17T23:12:17.087Z,16.20
2018-09-17T23:14:44.892Z,15.90
2018-09-17T23:17:12.322Z,15.30
2018-09-17T23:19:39.775Z,16.10
2018-09-17T23:22:07.117Z,15.28
2018-09-17T23:24:34.493Z,15.60
2018-09-17T23:27:01.851Z,15.15
2018-09-17T23:29:29.173Z,15.08
2018-09-17T23:31:56.461Z,15.68
2018-09-17T23:34:23.721Z,15.15
2018-09-17T23:36:51.069Z,15.10
2018-09-17T23:39:18.407Z,15.78
2018-09-17T23:41:45.778Z,14.93
2018-09-17T23:44:13.089Z,15.05
2018-09-17T23:46:40.385Z,16.40
2018-09-17T23:49:07.658Z,15.32
2018-09-17T23:51:34.996Z,15.30
2018-09-17T23:54:02.327Z,16.85
2018-09-17T23:56:29.880Z,15.70
2018-09-17T23:58:57.158Z,15.13
